createdAt,value
2017-02-12T00:01:08.327Z,-1.02
2017-02-12T00:02:29.991Z,-1.01
2017-02-12T00:03:52.842Z,-1.05
2017-02-12T00:05:14.862Z,-1.07
2017-02-12T00:06:36.942Z,-0.97
2017-02-12T00:07:59.401Z,-0.98
2017-02-12T00:09:21.962Z,-0.98
2017-02-12T00:10:43.909Z,-0.97
2017-02-12T00:12:05.573Z,-0.94
2017-02-12T00:13:27.254Z,-0.91
2017-02-12T00:14:49.342Z,-0.94
2017-02-12T00:16:11.663Z,-0.79
2017-02-12T00:17:34.114Z,-0.82
2017-02-12T00:18:56.232Z,-0.8
2017-02-12T00:20:18.281Z,-0.85
2017-02-12T00:21:40.647Z,-0.83
2017-02-12T00:23:02.803Z,-0.79
2017-02-12T00:24:25.293Z,-0.78
2017-02-12T00:25:47.850Z,-0.75
2017-02-12T00:27:10.166Z,-0.83
2017-02-12T00:28:32.215Z,-0.79
2017-02-12T00:29:53.890Z,-0.76
2017-02-12T00:31:15.991Z,-0.8
2017-02-12T00:32:37.973Z,-0.76
2017-02-12T00:34:00.467Z,-0.67
2017-02-12T00:35:22.951Z,-0.7
2017-02-12T00:36:44.620Z,-0.67
2017-02-12T00:38:06.249Z,-0.64
2017-02-12T00:39:27.537Z,-0.76
2017-02-12T00:40:49.211Z,-0.7
2017-02-12T00:42:11.701Z,-0.69
2017-02-12T00:43:33.675Z,-0.73
2017-02-12T00:44:55.377Z,-0.76
2017-02-12T00:46:17.893Z,-0.75
2017-02-12T00:47:40.372Z,-0.78
2017-02-12T00:49:03.084Z,-0.76
2017-02-12T00:50:25.238Z,-0.73
2017-02-12T00:51:47.738Z,-0.83
2017-02-12T00:53:10.659Z,-0.85
2017-02-12T00:54:32.959Z,-0.79
2017-02-12T00:55:55.475Z,-0.79
2017-02-12T00:57:17.989Z,-0.79
2017-02-12T00:58:40.447Z,-0.83
2017-02-12T01:00:02.420Z,-0.82
2017-02-12T01:01:24.084Z,-0.83
2017-02-12T01:02:46.602Z,-0.86
2017-02-12T01:04:08.265Z,-0.83
2017-02-12T01:05:30.284Z,-0.82
2017-02-12T01:06:52.731Z,-0.91
2017-02-12T01:08:15.208Z,-0.95
2017-02-12T01:09:37.282Z,-0.99
2017-02-12T01:10:59.692Z,-1.02
2017-02-12T01:12:21.772Z,-0.99
2017-02-12T01:13:43.834Z,-1.17
2017-02-12T01:15:06.418Z,-1.09
2017-02-12T01:16:28.338Z,-1.25
2017-02-12T01:17:50.050Z,-1.28
2017-02-12T01:19:11.736Z,-1.34
2017-02-12T01:20:33.849Z,-1.33
2017-02-12T01:21:56.617Z,-1.48
2017-02-12T01:23:18.686Z,-1.46
2017-02-12T01:24:40.380Z,-1.51
2017-02-12T01:26:02.417Z,-1.49
2017-02-12T01:27:25.193Z,-1.48
2017-02-12T01:28:47.656Z,-1.51
2017-02-12T01:30:09.728Z,-1.55
2017-02-12T01:31:30.987Z,-1.59
2017-02-12T01:32:53.359Z,-1.52
2017-02-12T01:34:16.251Z,-1.66
2017-02-12T01:35:38.704Z,-1.73
2017-02-12T01:37:01.375Z,-1.69
2017-02-12T01:38:23.769Z,-1.64
2017-02-12T01:39:45.428Z,-1.67
2017-02-12T01:41:07.108Z,-1.72
2017-02-12T01:42:29.593Z,-1.7
2017-02-12T01:43:51.968Z,-1.72
2017-02-12T01:45:14.560Z,-1.69
2017-02-12T01:46:36.997Z,-1.76
2017-02-12T01:47:59.531Z,-1.67
2017-02-12T01:49:21.130Z,-1.67
2017-02-12T01:50:42.785Z,-1.66
2017-02-12T01:52:04.835Z,-1.58
2017-02-12T01:53:26.489Z,-1.59
2017-02-12T01:54:48.833Z,-1.69
2017-02-12T01:56:11.673Z,-1.72
2017-02-12T01:57:33.354Z,-1.69
2017-02-12T01:58:54.607Z,-1.56
2017-02-12T02:00:17.779Z,-1.69
2017-02-12T02:01:38.638Z,-1.62
2017-02-12T02:03:00.301Z,-1.61
2017-02-12T02:04:22.798Z,-1.55
2017-02-12T02:05:45.111Z,-1.49
2017-02-12T02:07:07.178Z,-1.49
2017-02-12T02:08:28.823Z,-1.46
2017-02-12T02:09:51.290Z,-1.43
2017-02-12T02:11:13.800Z,-1.46
2017-02-12T02:12:36.656Z,-1.41
2017-02-12T02:13:59.220Z,-1.28
2017-02-12T02:15:20.896Z,-1.3
2017-02-12T02:16:43.245Z,-1.27
2017-02-12T02:18:06.115Z,-1.16
2017-02-12T02:19:28.170Z,-1.09
2017-02-12T02:20:50.626Z,-0.99
2017-02-12T02:22:13.461Z,-1.04
2017-02-12T02:23:35.926Z,-0.97
2017-02-12T02:24:58.439Z,-1.01
2017-02-12T02:26:20.195Z,-1.02
2017-02-12T02:27:42.769Z,-0.98
2017-02-12T02:29:04.818Z,-0.94
2017-02-12T02:30:27.688Z,-0.78
2017-02-12T02:31:49.759Z,-0.79
2017-02-12T02:33:12.377Z,-0.78
2017-02-12T02:34:34.824Z,-0.79
2017-02-12T02:35:56.893Z,-0.82
2017-02-12T02:37:19.039Z,-0.78
2017-02-12T02:38:41.003Z,-0.78
2017-02-12T02:40:02.670Z,-0.76
2017-02-12T02:41:24.364Z,-0.69
2017-02-12T02:42:46.453Z,-0.69
2017-02-12T02:44:09.271Z,-0.65
2017-02-12T02:45:30.925Z,-0.75
2017-02-12T02:46:53.374Z,-0.67
2017-02-12T02:48:15.814Z,-0.69
2017-02-12T02:49:37.737Z,-0.7
2017-02-12T02:50:59.801Z,-0.69
2017-02-12T02:52:22.650Z,-0.64
2017-02-12T02:53:44.303Z,-0.64
2017-02-12T02:55:06.643Z,-0.69
2017-02-12T02:56:28.713Z,-0.67
2017-02-12T02:57:51.557Z,-0.62
2017-02-12T02:59:13.218Z,-0.67
2017-02-12T03:00:35.159Z,-0.65
2017-02-12T03:01:56.815Z,-0.62
2017-02-12T03:03:18.049Z,-0.6
2017-02-12T03:04:39.752Z,-0.54
2017-02-12T03:06:02.739Z,-0.62
2017-02-12T03:07:24.389Z,-0.54
2017-02-12T03:08:46.038Z,-0.52
2017-02-12T03:10:08.102Z,-0.54
2017-02-12T03:11:30.450Z,-0.46
2017-02-12T03:12:52.893Z,-0.49
2017-02-12T03:14:15.347Z,-0.49
2017-02-12T03:15:37.011Z,-0.51
2017-02-12T03:16:58.980Z,-0.54
2017-02-12T03:18:21.020Z,-0.57
2017-02-12T03:19:41.894Z,-0.49
2017-02-12T03:21:04.450Z,-0.52
2017-02-12T03:22:26.007Z,-0.51
2017-02-12T03:23:48.449Z,-0.46
2017-02-12T03:25:11.017Z,-0.47
2017-02-12T03:26:33.065Z,-0.51
2017-02-12T03:27:55.471Z,-0.49
2017-02-12T03:29:17.537Z,-0.46
2017-02-12T03:30:39.589Z,-0.46
2017-02-12T03:32:01.245Z,-0.47
2017-02-12T03:33:23.542Z,-0.46
2017-02-12T03:34:46.011Z,-0.46
2017-02-12T03:36:07.276Z,-0.49
2017-02-12T03:37:30.162Z,-0.51
2017-02-12T03:38:52.583Z,-0.42
2017-02-12T03:40:13.820Z,-0.46
2017-02-12T03:41:35.579Z,-0.51
2017-02-12T03:42:57.229Z,-0.51
2017-02-12T03:44:18.779Z,-0.36
2017-02-12T03:45:39.768Z,-0.51
2017-02-12T03:47:01.878Z,-0.51
2017-02-12T03:48:23.944Z,-0.44
2017-02-12T03:49:46.511Z,-0.51
2017-02-12T03:51:09.052Z,-0.51
2017-02-12T03:52:30.721Z,-0.49
2017-02-12T03:53:53.554Z,-0.39
2017-02-12T03:55:16.711Z,-0.37
2017-02-12T03:56:38.847Z,-0.37
2017-02-12T03:58:00.921Z,-0.4
2017-02-12T03:59:22.289Z,-0.43
2017-02-12T04:00:44.377Z,-0.34
2017-02-12T04:02:05.744Z,-0.4
2017-02-12T04:03:27.421Z,-0.37
2017-02-12T04:04:50.290Z,-0.36
2017-02-12T04:06:13.517Z,-0.34
2017-02-12T04:07:35.989Z,-0.42
2017-02-12T04:08:58.082Z,-0.36
2017-02-12T04:10:19.751Z,-0.34
2017-02-12T04:11:42.179Z,-0.37
2017-02-12T04:13:04.261Z,-0.4
2017-02-12T04:14:26.708Z,-0.42
2017-02-12T04:15:48.389Z,-0.29
2017-02-12T04:17:10.852Z,-0.37
2017-02-12T04:18:33.286Z,-0.36
2017-02-12T04:19:55.761Z,-0.34
2017-02-12T04:21:18.229Z,-0.34
2017-02-12T04:22:40.591Z,-0.39
2017-02-12T04:24:02.261Z,-0.29
2017-02-12T04:25:25.159Z,-0.36
2017-02-12T04:26:47.610Z,-0.4
2017-02-12T04:28:09.612Z,-0.42
2017-02-12T04:29:31.700Z,-0.4
2017-02-12T04:30:53.741Z,-0.36
2017-02-12T04:32:15.100Z,-0.39
2017-02-12T04:33:37.471Z,-0.39
2017-02-12T04:34:59.922Z,-0.31
2017-02-12T04:36:22.052Z,-0.29
2017-02-12T04:37:44.102Z,-0.34
2017-02-12T04:39:06.067Z,-0.4
2017-02-12T04:40:28.105Z,-0.36
2017-02-12T04:41:50.559Z,-0.36
2017-02-12T04:43:13.053Z,-0.28
2017-02-12T04:44:34.956Z,-0.34
2017-02-12T04:45:57.029Z,-0.4
2017-02-12T04:47:19.479Z,-0.4
2017-02-12T04:48:41.641Z,-0.39
2017-02-12T04:50:03.594Z,-0.34
2017-02-12T04:51:26.073Z,-0.42
2017-02-12T04:52:47.719Z,-0.39
2017-02-12T04:54:09.871Z,-0.4
2017-02-12T04:55:32.261Z,-0.29
2017-02-12T04:56:54.730Z,-0.4
2017-02-12T04:58:16.385Z,-0.37
2017-02-12T04:59:38.436Z,-0.37
2017-02-12T05:01:00.003Z,-0.37
2017-02-12T05:02:22.504Z,-0.39
2017-02-12T05:03:44.581Z,-0.39
2017-02-12T05:05:06.631Z,-0.29
2017-02-12T05:06:30.836Z,-0.37
2017-02-12T05:07:52.978Z,-0.33
2017-02-12T05:09:15.031Z,-0.33
2017-02-12T05:10:37.495Z,-0.33
2017-02-12T05:12:00.256Z,-0.29
2017-02-12T05:13:22.325Z,-0.37
2017-02-12T05:14:45.192Z,-0.31
2017-02-12T05:16:07.259Z,-0.34
2017-02-12T05:17:29.359Z,-0.37
2017-02-12T05:18:51.858Z,-0.44
2017-02-12T05:20:13.521Z,-0.4
2017-02-12T05:21:34.940Z,-0.37
2017-02-12T05:22:56.898Z,-0.4
2017-02-12T05:24:19.326Z,-0.36
2017-02-12T05:25:41.879Z,-0.44
2017-02-12T05:27:03.925Z,-0.29
2017-02-12T05:28:26.265Z,-0.36
2017-02-12T05:29:47.904Z,-0.42
2017-02-12T05:31:09.591Z,-0.37
2017-02-12T05:32:31.241Z,-0.37
2017-02-12T05:33:52.809Z,-0.39
2017-02-12T05:35:14.861Z,-0.42
2017-02-12T05:36:36.940Z,-0.34
2017-02-12T05:37:59.394Z,-0.36
2017-02-12T05:39:21.711Z,-0.43
2017-02-12T05:40:43.503Z,-0.34
2017-02-12T05:42:05.265Z,-0.39
2017-02-12T05:43:26.930Z,-0.37
2017-02-12T05:44:50.231Z,-0.39
2017-02-12T05:46:12.310Z,-0.34
2017-02-12T05:47:34.410Z,-0.39
2017-02-12T05:48:56.063Z,-0.31
2017-02-12T05:50:17.700Z,-0.31
2017-02-12T05:51:39.879Z,-0.39
2017-02-12T05:53:02.041Z,-0.37
2017-02-12T05:54:24.152Z,-0.31
2017-02-12T05:55:45.713Z,-0.34
2017-02-12T05:57:07.858Z,-0.39
2017-02-12T05:58:29.101Z,-0.39
2017-02-12T05:59:51.170Z,-0.37
2017-02-12T06:01:13.150Z,-0.36
2017-02-12T06:02:34.845Z,-0.31
2017-02-12T06:03:56.919Z,-0.31
2017-02-12T06:05:19.356Z,-0.33
2017-02-12T06:06:41.693Z,-0.31
2017-02-12T06:08:02.556Z,-0.28
2017-02-12T06:09:24.217Z,-0.36
2017-02-12T06:10:45.479Z,-0.34
2017-02-12T06:12:07.853Z,-0.29
2017-02-12T06:13:30.814Z,-0.33
2017-02-12T06:14:52.898Z,-0.39
2017-02-12T06:16:14.161Z,-0.31
2017-02-12T06:17:35.711Z,-0.31
2017-02-12T06:18:57.394Z,-0.34
2017-02-12T06:20:19.492Z,-0.31
2017-02-12T06:21:42.100Z,-0.34
2017-02-12T06:23:04.490Z,-0.26
2017-02-12T06:24:26.143Z,-0.28
2017-02-12T06:25:48.228Z,-0.36
2017-02-12T06:27:11.121Z,-0.28
2017-02-12T06:28:33.429Z,-0.34
2017-02-12T06:29:55.892Z,-0.26
2017-02-12T06:31:18.375Z,-0.29
2017-02-12T06:32:40.481Z,-0.34
2017-02-12T06:34:02.848Z,-0.29
2017-02-12T06:35:24.934Z,-0.36
2017-02-12T06:36:46.981Z,-0.28
2017-02-12T06:38:08.668Z,-0.25
2017-02-12T06:39:31.400Z,-0.28
2017-02-12T06:40:52.658Z,-0.33
2017-02-12T06:42:14.712Z,-0.28
2017-02-12T06:43:36.758Z,-0.29
2017-02-12T06:44:59.071Z,-0.22
2017-02-12T06:46:21.521Z,-0.25
2017-02-12T06:47:43.986Z,-0.23
2017-02-12T06:49:06.043Z,-0.25
2017-02-12T06:50:28.081Z,-0.31
2017-02-12T06:51:49.801Z,-0.22
2017-02-12T06:53:11.996Z,-0.26
2017-02-12T06:54:33.822Z,-0.29
2017-02-12T06:55:56.140Z,-0.23
2017-02-12T06:57:17.407Z,-0.21
2017-02-12T06:58:39.472Z,-0.18
2017-02-12T07:00:01.623Z,-0.18
2017-02-12T07:01:23.544Z,-0.14
2017-02-12T07:02:45.600Z,-0.21
2017-02-12T07:04:06.928Z,-0.15
2017-02-12T07:05:29.461Z,-0.23
2017-02-12T07:06:51.433Z,-0.14
2017-02-12T07:08:13.163Z,-0.14
2017-02-12T07:09:35.219Z,-0.15
2017-02-12T07:10:57.291Z,-0.18
2017-02-12T07:12:19.205Z,-0.19
2017-02-12T07:13:40.889Z,-0.16
2017-02-12T07:15:03.762Z,-0.14
2017-02-12T07:16:26.630Z,-0.11
2017-02-12T07:17:49.459Z,-0.11
2017-02-12T07:19:10.769Z,-0.18
2017-02-12T07:20:33.026Z,-0.16
2017-02-12T07:21:55.071Z,-0.15
2017-02-12T07:23:16.994Z,-0.19
2017-02-12T07:24:39.053Z,-0.11
2017-02-12T07:26:01.381Z,-0.15
2017-02-12T07:27:23.863Z,-0.11
2017-02-12T07:28:46.710Z,-0.08
2017-02-12T07:30:08.926Z,-0.14
2017-02-12T07:31:31.001Z,-0.07
2017-02-12T07:32:52.680Z,-0.07
2017-02-12T07:34:15.931Z,-0.07
2017-02-12T07:35:38.774Z,-0.07
2017-02-12T07:37:00.840Z,-0.01
2017-02-12T07:38:22.100Z,-0.07
2017-02-12T07:39:44.510Z,0
2017-02-12T07:41:07.152Z,-0.05
2017-02-12T07:42:29.599Z,-0.07
2017-02-12T07:43:51.691Z,-0.03
2017-02-12T07:45:13.986Z,-0.01
2017-02-12T07:46:35.788Z,0
2017-02-12T07:47:57.456Z,0.02
2017-02-12T07:49:19.543Z,-0.04
2017-02-12T07:50:42.704Z,0.02
2017-02-12T07:52:04.756Z,-0.01
2017-02-12T07:53:26.546Z,0
2017-02-12T07:54:48.659Z,0.1
2017-02-12T07:56:11.387Z,0.1
2017-02-12T07:57:33.894Z,0.04
2017-02-12T07:58:55.580Z,0.1
2017-02-12T08:00:17.664Z,0.02
2017-02-12T08:01:40.433Z,0.11
2017-02-12T08:03:02.121Z,0.11
2017-02-12T08:04:24.581Z,0.18
2017-02-12T08:05:47.166Z,0.18
2017-02-12T08:07:10.018Z,0.28
2017-02-12T08:08:32.091Z,0.24
2017-02-12T08:09:54.255Z,0.28
2017-02-12T08:11:16.441Z,0.39
2017-02-12T08:12:39.208Z,0.32
2017-02-12T08:14:00.909Z,0.39
2017-02-12T08:15:22.176Z,0.36
2017-02-12T08:16:44.228Z,0.26
2017-02-12T08:18:06.951Z,0.33
2017-02-12T08:19:29.834Z,0.35
2017-02-12T08:20:52.300Z,0.41
2017-02-12T08:22:13.989Z,0.51
2017-02-12T08:23:37.214Z,0.44
2017-02-12T08:24:59.693Z,0.55
2017-02-12T08:26:21.857Z,0.6
2017-02-12T08:27:44.135Z,0.42
2017-02-12T08:29:06.225Z,0.44
2017-02-12T08:30:28.341Z,0.58
2017-02-12T08:31:50.419Z,0.38
2017-02-12T08:33:12.494Z,0.44
2017-02-12T08:34:34.503Z,0.36
2017-02-12T08:35:56.227Z,0.42
2017-02-12T08:37:18.430Z,0.44
2017-02-12T08:38:40.101Z,0.51
2017-02-12T08:40:02.160Z,0.46
2017-02-12T08:41:24.252Z,0.58
2017-02-12T08:42:45.899Z,0.57
2017-02-12T08:44:07.979Z,0.58
2017-02-12T08:45:29.529Z,0.65
2017-02-12T08:46:52.614Z,0.57
2017-02-12T08:48:14.699Z,0.55
2017-02-12T08:49:37.198Z,0.55
2017-02-12T08:50:59.524Z,0.57
2017-02-12T08:52:22.008Z,0.61
2017-02-12T08:53:44.483Z,0.79
2017-02-12T08:55:06.960Z,0.62
2017-02-12T08:56:29.082Z,0.72
2017-02-12T08:57:51.955Z,0.78
2017-02-12T08:59:14.541Z,0.6
2017-02-12T09:00:36.702Z,0.73
2017-02-12T09:01:59.025Z,0.7
2017-02-12T09:03:21.519Z,0.72
2017-02-12T09:04:43.191Z,0.8
2017-02-12T09:06:06.220Z,0.78
2017-02-12T09:07:28.978Z,0.84
2017-02-12T09:08:51.440Z,0.87
2017-02-12T09:10:13.905Z,0.78
2017-02-12T09:11:36.774Z,0.78
2017-02-12T09:12:59.118Z,0.83
2017-02-12T09:14:21.592Z,0.76
2017-02-12T09:15:43.358Z,0.76
2017-02-12T09:17:05.821Z,0.8
2017-02-12T09:18:28.245Z,0.8
2017-02-12T09:19:50.804Z,0.86
2017-02-12T09:21:12.887Z,0.91
2017-02-12T09:22:34.994Z,0.94
2017-02-12T09:23:57.767Z,0.97
2017-02-12T09:25:19.850Z,0.93
2017-02-12T09:26:42.717Z,1
2017-02-12T09:28:05.191Z,1.05
2017-02-12T09:29:27.957Z,1.16
2017-02-12T09:30:50.531Z,1.08
2017-02-12T09:32:12.187Z,0.94
2017-02-12T09:33:33.496Z,0.91
2017-02-12T09:34:56.260Z,0.83
2017-02-12T09:36:18.752Z,0.93
2017-02-12T09:37:41.224Z,1.05
2017-02-12T09:39:03.281Z,1.05
2017-02-12T09:40:26.108Z,1.04
2017-02-12T09:41:48.176Z,1.15
2017-02-12T09:43:09.909Z,1.12
2017-02-12T09:44:32.022Z,1.15
2017-02-12T09:45:55.211Z,1.24
2017-02-12T09:47:16.484Z,1.11
2017-02-12T09:48:38.565Z,1.22
2017-02-12T09:50:00.272Z,1.3
2017-02-12T09:51:22.699Z,1.27
2017-02-12T09:52:44.440Z,1.26
2017-02-12T09:54:06.570Z,1.33
2017-02-12T09:55:29.015Z,1.34
2017-02-12T09:56:51.396Z,1.23
2017-02-12T09:58:13.996Z,1.29
2017-02-12T09:59:35.666Z,1.33
2017-02-12T10:00:57.768Z,1.5
2017-02-12T10:02:19.722Z,1.52
2017-02-12T10:03:41.915Z,1.58
2017-02-12T10:05:04.871Z,1.36
2017-02-12T10:06:27.769Z,1.41
2017-02-12T10:07:50.632Z,1.37
2017-02-12T10:09:12.710Z,1.33
2017-02-12T10:10:35.143Z,1.41
2017-02-12T10:11:56.824Z,1.44
2017-02-12T10:13:19.741Z,1.47
2017-02-12T10:14:42.215Z,1.32
2017-02-12T10:16:05.232Z,1.41
2017-02-12T10:17:27.787Z,1.45
2017-02-12T10:18:50.135Z,1.45
2017-02-12T10:20:12.236Z,1.34
2017-02-12T10:21:34.699Z,1.59
2017-02-12T10:22:57.233Z,1.51
2017-02-12T10:24:19.221Z,1.44
2017-02-12T10:25:41.289Z,1.42
2017-02-12T10:27:03.416Z,1.44
2017-02-12T10:28:25.480Z,1.48
2017-02-12T10:29:48.261Z,1.66
2017-02-12T10:31:10.354Z,1.63
2017-02-12T10:32:32.871Z,1.73
2017-02-12T10:33:55.850Z,1.68
2017-02-12T10:35:18.192Z,1.76
2017-02-12T10:36:40.900Z,1.73
2017-02-12T10:38:03.359Z,1.84
2017-02-12T10:39:25.831Z,1.65
2017-02-12T10:40:48.269Z,1.8
2017-02-12T10:42:10.381Z,1.87
2017-02-12T10:43:32.864Z,1.76
2017-02-12T10:44:54.987Z,1.7
2017-02-12T10:46:16.127Z,1.7
2017-02-12T10:47:38.303Z,1.91
2017-02-12T10:49:00.423Z,1.77
2017-02-12T10:50:22.875Z,1.91
2017-02-12T10:51:45.627Z,2.07
2017-02-12T10:53:07.734Z,2.06
2017-02-12T10:54:30.768Z,1.77
2017-02-12T10:55:53.692Z,1.79
2017-02-12T10:57:16.530Z,1.81
2017-02-12T10:58:39.432Z,1.76
2017-02-12T11:00:02.327Z,1.81
2017-02-12T11:01:24.539Z,1.86
2017-02-12T11:02:47.731Z,1.76
2017-02-12T11:04:10.231Z,1.7
2017-02-12T11:05:33.160Z,1.7
2017-02-12T11:06:54.835Z,1.79
2017-02-12T11:08:17.250Z,1.83
2017-02-12T11:09:39.798Z,2.06
2017-02-12T11:11:02.339Z,1.98
2017-02-12T11:12:24.833Z,1.9
2017-02-12T11:13:47.617Z,1.81
2017-02-12T11:15:10.611Z,1.8
2017-02-12T11:16:33.072Z,1.72
2017-02-12T11:17:56.054Z,1.93
2017-02-12T11:19:18.811Z,1.93
2017-02-12T11:20:41.508Z,2.09
2017-02-12T11:22:04.381Z,2.09
2017-02-12T11:23:26.975Z,2.1
2017-02-12T11:24:50.366Z,2.02
2017-02-12T11:26:13.265Z,2.03
2017-02-12T11:27:36.321Z,2.16
2017-02-12T11:28:58.797Z,2.17
2017-02-12T11:30:22.091Z,2.09
2017-02-12T11:31:44.568Z,2.17
2017-02-12T11:33:07.215Z,2.17
2017-02-12T11:34:29.703Z,1.93
2017-02-12T11:35:52.928Z,1.98
2017-02-12T11:37:14.602Z,1.99
2017-02-12T11:38:36.720Z,2
2017-02-12T11:39:59.202Z,2.16
2017-02-12T11:41:22.480Z,2.17
2017-02-12T11:42:45.031Z,2.03
2017-02-12T11:44:08.046Z,1.98
2017-02-12T11:45:31.278Z,2.1
2017-02-12T11:46:54.035Z,2.05
2017-02-12T11:48:16.542Z,2.12
2017-02-12T11:49:39.441Z,2.18
2017-02-12T11:51:02.357Z,2.36
2017-02-12T11:52:24.441Z,2.41
2017-02-12T11:53:46.981Z,2.41
2017-02-12T11:55:09.942Z,2.45
2017-02-12T11:56:32.442Z,2.38
2017-02-12T11:57:54.884Z,2.41
2017-02-12T11:59:17.055Z,2.54
2017-02-12T12:00:39.614Z,2.35
2017-02-12T12:02:01.284Z,2.38
2017-02-12T12:03:24.521Z,2.57
2017-02-12T12:04:47.131Z,2.57
2017-02-12T12:06:09.600Z,2.57
2017-02-12T12:07:32.240Z,2.6
2017-02-12T12:08:55.641Z,2.64
2017-02-12T12:10:18.729Z,2.66
2017-02-12T12:11:40.822Z,2.78
2017-02-12T12:13:03.730Z,2.71
2017-02-12T12:14:26.613Z,2.53
2017-02-12T12:15:49.503Z,2.41
2017-02-12T12:17:12.078Z,2.43
2017-02-12T12:18:34.317Z,2.63
2017-02-12T12:19:57.048Z,2.64
2017-02-12T12:21:19.152Z,2.49
2017-02-12T12:22:41.372Z,2.53
2017-02-12T12:24:04.275Z,2.63
2017-02-12T12:25:26.243Z,2.48
2017-02-12T12:26:48.760Z,2.6
2017-02-12T12:28:11.274Z,2.54
2017-02-12T12:29:33.764Z,2.46
2017-02-12T12:30:56.221Z,2.53
2017-02-12T12:32:18.794Z,2.56
2017-02-12T12:33:41.286Z,2.53
2017-02-12T12:35:04.161Z,2.66
2017-02-12T12:36:26.093Z,2.59
2017-02-12T12:37:49.051Z,2.63
2017-02-12T12:39:11.537Z,2.74
2017-02-12T12:40:34.019Z,2.81
2017-02-12T12:41:56.874Z,2.69
2017-02-12T12:43:19.022Z,2.77
2017-02-12T12:44:41.509Z,2.72
2017-02-12T12:46:04.027Z,2.6
2017-02-12T12:47:27.175Z,2.52
2017-02-12T12:48:50.063Z,2.63
2017-02-12T12:50:12.649Z,2.66
2017-02-12T12:51:34.725Z,2.74
2017-02-12T12:52:57.500Z,2.87
2017-02-12T12:54:20.114Z,2.71
2017-02-12T12:55:42.995Z,2.48
2017-02-12T12:57:05.134Z,2.41
2017-02-12T12:58:28.406Z,2.46
2017-02-12T12:59:50.513Z,2.52
2017-02-12T13:01:12.634Z,2.56
2017-02-12T13:02:35.248Z,2.6
2017-02-12T13:03:58.487Z,2.69
2017-02-12T13:05:21.028Z,2.74
2017-02-12T13:06:43.934Z,2.72
2017-02-12T13:08:06.445Z,2.67
2017-02-12T13:09:29.192Z,2.69
2017-02-12T13:10:51.472Z,2.59
2017-02-12T13:12:13.992Z,2.63
2017-02-12T13:13:36.561Z,2.54
2017-02-12T13:14:58.921Z,2.56
2017-02-12T13:16:21.025Z,2.61
2017-02-12T13:17:43.931Z,2.69
2017-02-12T13:19:06.049Z,2.75
2017-02-12T13:20:29.047Z,2.82
2017-02-12T13:21:51.562Z,2.84
2017-02-12T13:23:14.627Z,2.77
2017-02-12T13:24:37.221Z,2.85
2017-02-12T13:26:00.178Z,2.9
2017-02-12T13:27:22.715Z,2.85
2017-02-12T13:28:45.233Z,2.84
2017-02-12T13:30:07.332Z,3.05
2017-02-12T13:31:30.501Z,2.79
2017-02-12T13:32:52.738Z,2.71
2017-02-12T13:34:14.421Z,2.79
2017-02-12T13:35:37.353Z,2.79
2017-02-12T13:37:00.953Z,2.75
2017-02-12T13:38:23.480Z,2.64
2017-02-12T13:39:45.862Z,2.66
2017-02-12T13:41:08.780Z,2.61
2017-02-12T13:42:31.611Z,2.67
2017-02-12T13:43:54.231Z,2.63
2017-02-12T13:45:15.952Z,2.71
2017-02-12T13:46:38.875Z,2.69
2017-02-12T13:48:01.682Z,2.66
2017-02-12T13:49:23.550Z,2.72
2017-02-12T13:50:46.463Z,2.71
2017-02-12T13:52:08.372Z,2.81
2017-02-12T13:53:31.633Z,2.78
2017-02-12T13:54:53.775Z,2.71
2017-02-12T13:56:16.741Z,2.78
2017-02-12T13:57:39.661Z,2.81
2017-02-12T13:59:02.021Z,2.85
2017-02-12T14:00:24.613Z,2.82
2017-02-12T14:01:47.091Z,2.71
2017-02-12T14:03:08.861Z,2.71
2017-02-12T14:04:32.124Z,2.87
2017-02-12T14:05:55.132Z,2.84
2017-02-12T14:07:17.377Z,2.79
2017-02-12T14:08:39.475Z,2.85
2017-02-12T14:10:02.256Z,3
2017-02-12T14:11:24.378Z,2.9
2017-02-12T14:12:46.865Z,2.9
2017-02-12T14:14:09.761Z,2.96
2017-02-12T14:15:32.536Z,2.9
2017-02-12T14:16:55.413Z,2.89
2017-02-12T14:18:18.300Z,2.89
2017-02-12T14:19:40.432Z,2.77
2017-02-12T14:21:03.224Z,2.64
2017-02-12T14:22:25.752Z,2.79
2017-02-12T14:23:47.851Z,2.79
2017-02-12T14:25:10.382Z,2.71
2017-02-12T14:26:33.154Z,2.69
2017-02-12T14:27:56.111Z,2.67
2017-02-12T14:29:19.142Z,2.56
2017-02-12T14:30:41.733Z,2.54
2017-02-12T14:32:04.897Z,2.59
2017-02-12T14:33:28.033Z,2.64
2017-02-12T14:34:50.620Z,2.63
2017-02-12T14:36:13.107Z,2.54
2017-02-12T14:37:35.899Z,2.52
2017-02-12T14:38:58.863Z,2.54
2017-02-12T14:40:21.784Z,2.54
2017-02-12T14:41:44.302Z,2.52
2017-02-12T14:43:07.468Z,2.57
2017-02-12T14:44:29.768Z,2.46
2017-02-12T14:45:52.414Z,2.41
2017-02-12T14:47:14.900Z,2.49
2017-02-12T14:48:37.052Z,2.46
2017-02-12T14:49:59.949Z,2.43
2017-02-12T14:51:20.864Z,2.45
2017-02-12T14:52:42.986Z,2.48
2017-02-12T14:54:06.180Z,2.38
2017-02-12T14:55:28.712Z,2.42
2017-02-12T14:56:50.844Z,2.39
2017-02-12T14:58:13.873Z,2.36
2017-02-12T14:59:37.115Z,2.34
2017-02-12T15:00:59.672Z,2.27
2017-02-12T15:02:21.802Z,2.27
2017-02-12T15:03:43.929Z,2.25
2017-02-12T15:05:07.232Z,2.27
2017-02-12T15:06:29.933Z,2.25
2017-02-12T15:07:52.866Z,2.21
2017-02-12T15:09:14.951Z,2.14
2017-02-12T15:10:37.721Z,2.12
2017-02-12T15:12:00.315Z,2.14
2017-02-12T15:13:23.258Z,1.99
2017-02-12T15:14:46.335Z,1.99
2017-02-12T15:16:08.697Z,1.99
2017-02-12T15:17:31.309Z,1.9
2017-02-12T15:18:54.219Z,1.79
2017-02-12T15:20:17.143Z,1.83
2017-02-12T15:21:39.946Z,1.76
2017-02-12T15:23:02.504Z,1.7
2017-02-12T15:24:26.022Z,1.69
2017-02-12T15:25:48.543Z,1.6
2017-02-12T15:27:11.862Z,1.6
2017-02-12T15:28:33.908Z,1.58
2017-02-12T15:29:56.402Z,1.58
2017-02-12T15:31:19.374Z,1.59
2017-02-12T15:32:42.224Z,1.58
2017-02-12T15:34:05.143Z,1.59
2017-02-12T15:35:27.645Z,1.54
2017-02-12T15:36:49.342Z,1.52
2017-02-12T15:38:11.733Z,1.59
2017-02-12T15:39:34.250Z,1.45
2017-02-12T15:40:56.498Z,1.54
2017-02-12T15:42:19.462Z,1.45
2017-02-12T15:43:42.254Z,1.44
2017-02-12T15:45:05.426Z,1.37
2017-02-12T15:46:27.904Z,1.34
2017-02-12T15:47:50.528Z,1.36
2017-02-12T15:49:13.338Z,1.47
2017-02-12T15:50:35.837Z,1.41
2017-02-12T15:51:58.430Z,1.36
2017-02-12T15:53:20.932Z,1.32
2017-02-12T15:54:44.105Z,1.3
2017-02-12T15:56:06.343Z,1.26
2017-02-12T15:57:29.320Z,1.22
2017-02-12T15:58:51.788Z,1.11
2017-02-12T16:00:14.123Z,1.06
2017-02-12T16:01:36.641Z,1.09
2017-02-12T16:02:59.559Z,0.97
2017-02-12T16:04:21.319Z,0.97
2017-02-12T16:05:44.258Z,0.93
2017-02-12T16:07:06.411Z,0.93
2017-02-12T16:08:29.405Z,0.88
2017-02-12T16:09:52.059Z,0.86
2017-02-12T16:11:14.855Z,0.78
2017-02-12T16:12:37.088Z,0.8
2017-02-12T16:14:00.138Z,0.69
2017-02-12T16:15:21.910Z,0.69
2017-02-12T16:16:44.752Z,0.73
2017-02-12T16:18:06.141Z,0.61
2017-02-12T16:19:29.131Z,0.69
2017-02-12T16:20:52.075Z,0.58
2017-02-12T16:22:15.235Z,0.53
2017-02-12T16:23:37.730Z,0.62
2017-02-12T16:25:00.259Z,0.58
2017-02-12T16:26:22.843Z,0.6
2017-02-12T16:27:44.858Z,0.57
2017-02-12T16:29:07.402Z,0.55
2017-02-12T16:30:30.325Z,0.53
2017-02-12T16:31:52.834Z,0.46
2017-02-12T16:33:16.021Z,0.51
2017-02-12T16:34:38.117Z,0.5
2017-02-12T16:36:00.625Z,0.38
2017-02-12T16:37:23.522Z,0.47
2017-02-12T16:38:46.689Z,0.47
2017-02-12T16:40:09.230Z,0.57
2017-02-12T16:41:31.746Z,0.5
2017-02-12T16:42:54.300Z,0.51
2017-02-12T16:44:17.866Z,0.55
2017-02-12T16:45:40.860Z,0.58
2017-02-12T16:47:03.781Z,0.39
2017-02-12T16:48:26.809Z,0.49
2017-02-12T16:49:49.660Z,0.35
2017-02-12T16:51:12.306Z,0.32
2017-02-12T16:52:35.232Z,0.29
2017-02-12T16:53:57.351Z,0.28
2017-02-12T16:55:20.151Z,0.2
2017-02-12T16:56:41.495Z,0.24
2017-02-12T16:58:04.428Z,0.17
2017-02-12T16:59:26.191Z,0.21
2017-02-12T17:00:48.578Z,0.23
2017-02-12T17:02:11.522Z,0.18
2017-02-12T17:03:34.439Z,0.15
2017-02-12T17:04:57.389Z,0.15
2017-02-12T17:06:19.854Z,0.04
2017-02-12T17:07:42.840Z,0.07
2017-02-12T17:09:05.327Z,0.1
2017-02-12T17:10:28.347Z,0.08
2017-02-12T17:11:51.266Z,0.04
2017-02-12T17:13:13.823Z,0.03
2017-02-12T17:14:35.950Z,0.03
2017-02-12T17:15:57.741Z,-0.03
2017-02-12T17:17:20.719Z,-0.05
2017-02-12T17:18:43.293Z,-0.05
2017-02-12T17:20:06.203Z,-0.11
2017-02-12T17:21:28.315Z,-0.08
2017-02-12T17:22:51.295Z,-0.15
2017-02-12T17:24:13.817Z,-0.11
2017-02-12T17:27:31.100Z,-0.21
2017-02-12T17:28:54.407Z,-0.15
2017-02-12T17:30:17.122Z,-0.16
2017-02-12T17:31:40.044Z,-0.18
2017-02-12T17:33:02.887Z,-0.21
2017-02-12T17:34:25.794Z,-0.16
2017-02-12T17:35:48.827Z,-0.14
2017-02-12T17:37:11.182Z,-0.16
2017-02-12T17:38:34.538Z,-0.23
2017-02-12T17:39:57.027Z,-0.25
2017-02-12T17:41:19.548Z,-0.21
2017-02-12T17:42:41.254Z,-0.18
2017-02-12T17:44:03.623Z,-0.18
2017-02-12T17:45:26.128Z,-0.29
2017-02-12T17:46:47.890Z,-0.25
2017-02-12T17:48:10.614Z,-0.22
2017-02-12T17:49:33.440Z,-0.28
2017-02-12T17:50:55.963Z,-0.23
2017-02-12T17:52:19.200Z,-0.26
2017-02-12T17:53:42.253Z,-0.4
2017-02-12T17:55:05.252Z,-0.51
2017-02-12T17:56:28.214Z,-0.49
2017-02-12T17:57:50.749Z,-0.37
2017-02-12T17:59:13.921Z,-0.33
2017-02-12T18:00:36.715Z,-0.29
2017-02-12T18:01:59.433Z,-0.42
2017-02-12T18:03:22.421Z,-0.42
2017-02-12T18:04:44.589Z,-0.47